Time,TemperatureF,DewpointF,PressureIn,WindDirection,WindDirectionDegrees,WindSpeedMPH,WindSpeedGustMPH,Humidity,HourlyPrecipIn,Conditions,Clouds,dailyrainin,SoftwareType,DateUTC
2013-03-15 00:01:00,51.0,18.0,30.10,WNW,297,1.0,-999.0,27,-99.99,,,-99.99,,2013-03-15 06:01:00,
2013-03-15 00:11:00,51.0,18.0,30.10,WNW,297,1.0,-999.0,27,-99.99,,,-99.99,,2013-03-15 06:11:00,
2013-03-15 00:22:00,51.0,17.0,30.09,WNW,284,2.0,-999.0,26,-99.99,,,-99.99,,2013-03-15 06:22:00,
2013-03-15 00:32:00,51.0,16.0,30.09,WNW,294,2.0,-999.0,25,-99.99,,,-99.99,,2013-03-15 06:32:00,
2013-03-15 00:41:00,51.0,16.0,30.09,WNW,294,2.0,-999.0,25,-99.99,,,-99.99,,2013-03-15 06:41:00,
2013-03-15 00:52:00,51.0,17.0,30.09,West,264,3.0,-999.0,26,-99.99,,,-99.99,,2013-03-15 06:52:00,
2013-03-15 01:01:00,50.0,17.0,30.09,West,274,1.0,-999.0,27,-99.99,,,-99.99,,2013-03-15 07:01:00,
2013-03-15 01:11:00,50.0,17.0,30.09,West,274,1.0,-999.0,27,-99.99,,,-99.99,,2013-03-15 07:11:00,
2013-03-15 01:21:00,49.0,17.0,30.09,West,273,0.0,-999.0,28,-99.99,,,-99.99,,2013-03-15 07:21:00,
2013-03-15 01:31:00,48.0,18.0,30.09,SW,229,1.0,-999.0,30,-99.99,,,-99.99,,2013-03-15 07:31:00,
2013-03-15 01:42:00,48.0,18.0,30.09,SW,229,1.0,-999.0,30,-99.99,,,-99.99,,2013-03-15 07:42:00,
2013-03-15 01:52:00,46.0,18.0,30.08,WSW,257,0.0,-999.0,32,-99.99,,,-99.99,,2013-03-15 07:52:00,
2013-03-15 02:02:00,46.0,19.0,30.07,WSW,257,1.0,-999.0,33,-99.99,,,-99.99,,2013-03-15 08:02:00,
2013-03-15 02:12:00,46.0,19.0,30.07,WSW,257,1.0,-999.0,33,-99.99,,,-99.99,,2013-03-15 08:12:00,
2013-03-15 02:22:00,46.0,18.0,30.07,WSW,257,0.0,-999.0,32,-99.99,,,-99.99,,2013-03-15 08:22:00,
2013-03-15 02:31:00,47.0,18.0,30.07,WSW,257,0.0,-999.0,31,-99.99,,,-99.99,,2013-03-15 08:31:00,
2013-03-15 02:41:00,47.0,18.0,30.07,WSW,257,0.0,-999.0,31,-99.99,,,-99.99,,2013-03-15 08:41:00,
2013-03-15 02:52:00,47.0,18.0,30.07,SW,232,1.0,-999.0,31,-99.99,,,-99.99,,2013-03-15 08:52:00,
2013-03-15 03:01:00,46.0,18.0,30.06,SW,231,1.0,-999.0,32,-99.99,,,-99.99,,2013-03-15 09:01:00,
2013-03-15 03:11:00,46.0,18.0,30.06,SW,231,1.0,-999.0,32,-99.99,,,-99.99,,2013-03-15 09:11:00,
2013-03-15 03:21:00,46.0,18.0,30.05,SW,227,1.0,-999.0,32,-99.99,,,-99.99,,2013-03-15 09:21:00,
2013-03-15 03:33:00,45.0,18.0,30.06,SW,236,1.0,-999.0,33,-99.99,,,-99.99,,2013-03-15 09:33:00,
2013-03-15 03:42:00,45.0,18.0,30.06,SW,236,1.0,-999.0,33,-99.99,,,-99.99,,2013-03-15 09:42:00,
2013-03-15 03:53:00,45.0,18.0,30.05,SW,236,0.0,-999.0,33,-99.99,,,-99.99,,2013-03-15 09:53:00,
2013-03-15 04:02:00,46.0,18.0,30.05,WSW,238,1.0,-999.0,32,-99.99,,,-99.99,,2013-03-15 10:02:00,
2013-03-15 04:12:00,46.0,18.0,30.05,WSW,238,1.0,-999.0,32,-99.99,,,-99.99,,2013-03-15 10:12:00,
2013-03-15 04:23:00,45.0,18.0,30.05,WSW,244,2.0,-999.0,33,-99.99,,,-99.99,,2013-03-15 10:23:00,
2013-03-15 04:32:00,45.0,18.0,30.05,WSW,244,2.0,-999.0,33,-99.99,,,-99.99,,2013-03-15 10:32:00,
2013-03-15 04:42:00,45.0,18.0,30.05,WSW,244,2.0,-999.0,33,-99.99,,,-99.99,,2013-03-15 10:42:00,
2013-03-15 04:52:00,45.0,17.0,30.04,WSW,248,1.0,-999.0,32,-99.99,,,-99.99,,2013-03-15 10:52:00,
2013-03-15 05:02:00,45.0,17.0,30.02,WSW,252,0.0,-999.0,32,-99.99,,,-99.99,,2013-03-15 11:02:00,
2013-03-15 05:12:00,45.0,17.0,30.02,WSW,252,0.0,-999.0,32,-99.99,,,-99.99,,2013-03-15 11:12:00,
2013-03-15 05:22:00,45.0,17.0,30.02,WSW,256,1.0,-999.0,32,-99.99,,,-99.99,,2013-03-15 11:22:00,
2013-03-15 05:32:00,44.0,17.0,30.03,West,259,3.0,-999.0,33,-99.99,,,-99.99,,2013-03-15 11:32:00,
2013-03-15 05:41:00,44.0,17.0,30.03,West,259,3.0,-999.0,33,-99.99,,,-99.99,,2013-03-15 11:41:00,
2013-03-15 05:52:00,44.0,17.0,30.02,West,268,1.0,-999.0,33,-99.99,,,-99.99,,2013-03-15 11:52:00,
2013-03-15 06:01:00,44.0,17.0,30.02,SW,235,0.0,-999.0,33,-99.99,,,-99.99,,2013-03-15 12:01:00,
2013-03-15 06:12:00,44.0,17.0,30.02,SW,235,0.0,-999.0,33,-99.99,,,-99.99,,2013-03-15 12:12:00,
2013-03-15 06:22:00,43.0,17.0,30.03,SW,229,1.0,-999.0,34,-99.99,,,-99.99,,2013-03-15 12:22:00,
2013-03-15 06:31:00,43.0,17.0,30.03,West,262,2.0,-999.0,34,-99.99,,,-99.99,,2013-03-15 12:31:00,
2013-03-15 06:42:00,43.0,17.0,30.03,West,262,2.0,-999.0,34,-99.99,,,-99.99,,2013-03-15 12:42:00,
2013-03-15 06:52:00,43.0,17.0,30.03,WSW,244,1.0,-999.0,35,-99.99,,,-99.99,,2013-03-15 12:52:00,
2013-03-15 07:01:00,44.0,18.0,30.02,West,260,0.0,-999.0,35,-99.99,,,-99.99,,2013-03-15 13:01:00,
2013-03-15 07:12:00,44.0,18.0,30.02,West,260,0.0,-999.0,35,-99.99,,,-99.99,,2013-03-15 13:12:00,
2013-03-15 07:22:00,45.0,18.0,30.03,WSW,247,2.0,-999.0,34,-99.99,,,-99.99,,2013-03-15 13:22:00,
2013-03-15 07:32:00,44.0,17.0,30.02,SW,232,0.0,-999.0,34,-99.99,,,-99.99,,2013-03-15 13:32:00,
2013-03-15 07:41:00,44.0,17.0,30.02,SW,232,0.0,-999.0,34,-99.99,,,-99.99,,2013-03-15 13:41:00,
2013-03-15 07:52:00,43.0,18.0,30.03,SSW,213,0.0,-999.0,36,-99.99,,,-99.99,,2013-03-15 13:52:00,
2013-03-15 08:01:00,43.0,18.0,30.03,SW,217,0.0,-999.0,36,-99.99,,,-99.99,,2013-03-15 14:01:00,
2013-03-15 08:11:00,43.0,18.0,30.03,SW,217,0.0,-999.0,36,-99.99,,,-99.99,,2013-03-15 14:11:00,
2013-03-15 08:22:00,44.0,19.0,30.03,SW,217,0.0,-999.0,36,-99.99,,,-99.99,,2013-03-15 14:22:00,
2013-03-15 08:32:00,44.0,19.0,30.03,SW,217,0.0,-999.0,36,-99.99,,,-99.99,,2013-03-15 14:32:00,
2013-03-15 08:42:00,44.0,19.0,30.03,SW,217,0.0,-999.0,36,-99.99,,,-99.99,,2013-03-15 14:42:00,
2013-03-15 08:52:00,45.0,18.0,30.03,SW,217,1.0,-999.0,34,-99.99,,,-99.99,,2013-03-15 14:52:00,
2013-03-15 09:01:00,43.0,18.0,30.03,SW,217,0.0,-999.0,36,-99.99,,,-99.99,,2013-03-15 15:01:00,
2013-03-15 09:12:00,43.0,18.0,30.03,SW,217,0.0,-999.0,36,-99.99,,,-99.99,,2013-03-15 15:12:00,
2013-03-15 09:22:00,43.0,19.0,30.03,SW,217,0.0,-999.0,37,-99.99,,,-99.99,,2013-03-15 15:22:00,
2013-03-15 09:32:00,46.0,21.0,30.03,SW,217,0.0,-999.0,36,-99.99,,,-99.99,,2013-03-15 15:32:00,
2013-03-15 09:42:00,49.0,21.0,30.03,SW,216,0.0,-999.0,33,-99.99,,,-99.99,,2013-03-15 15:42:00,
2013-03-15 09:52:00,49.0,21.0,30.03,SW,216,0.0,-999.0,33,-99.99,,,-99.99,,2013-03-15 15:52:00,
2013-03-15 10:02:00,50.0,21.0,30.02,SW,218,0.0,-999.0,32,-99.99,,,-99.99,,2013-03-15 16:02:00,
2013-03-15 10:12:00,53.0,22.0,30.02,SW,224,0.0,-999.0,30,-99.99,,,-99.99,,2013-03-15 16:12:00,
2013-03-15 10:22:00,53.0,22.0,30.02,SW,224,0.0,-999.0,30,-99.99,,,-99.99,,2013-03-15 16:22:00,
2013-03-15 10:32:00,53.0,22.0,30.02,SW,215,3.0,-999.0,29,-99.99,,,-99.99,,2013-03-15 16:32:00,
2013-03-15 10:42:00,53.0,22.0,30.02,SW,215,3.0,-999.0,29,-99.99,,,-99.99,,2013-03-15 16:42:00,
2013-03-15 10:52:00,54.0,22.0,30.02,SSW,192,2.0,-999.0,29,-99.99,,,-99.99,,2013-03-15 16:52:00,
2013-03-15 11:01:00,56.0,21.0,30.02,West,261,3.0,-999.0,25,-99.99,,,-99.99,,2013-03-15 17:01:00,
2013-03-15 11:12:00,56.0,21.0,30.02,West,261,3.0,-999.0,25,-99.99,,,-99.99,,2013-03-15 17:12:00,
2013-03-15 11:22:00,60.0,20.0,30.01,West,275,7.0,-999.0,21,-99.99,,,-99.99,,2013-03-15 17:22:00,
2013-03-15 11:32:00,61.0,18.0,30.00,West,267,10.0,-999.0,19,-99.99,,,-99.99,,2013-03-15 17:32:00,
2013-03-15 11:42:00,61.0,18.0,30.00,West,267,10.0,-999.0,19,-99.99,,,-99.99,,2013-03-15 17:42:00,
2013-03-15 11:52:00,63.0,19.0,30.00,WNW,285,18.0,-999.0,18,-99.99,,,-99.99,,2013-03-15 17:52:00,
2013-03-15 12:02:00,63.0,19.0,29.99,West,268,15.0,-999.0,18,-99.99,,,-99.99,,2013-03-15 18:02:00,
2013-03-15 12:11:00,63.0,19.0,29.99,West,268,15.0,-999.0,18,-99.99,,,-99.99,,2013-03-15 18:11:00,
2013-03-15 12:21:00,65.0,20.0,29.98,WNW,302,15.0,-999.0,18,-99.99,,,-99.99,,2013-03-15 18:21:00,
2013-03-15 12:32:00,65.0,19.0,29.96,West,259,11.0,-999.0,17,-99.99,,,-99.99,,2013-03-15 18:32:00,
2013-03-15 12:42:00,65.0,19.0,29.96,West,259,11.0,-999.0,17,-99.99,,,-99.99,,2013-03-15 18:42:00,
2013-03-15 12:52:00,64.0,20.0,29.96,West,262,12.0,-999.0,18,-99.99,,,-99.99,,2013-03-15 18:52:00,
2013-03-15 13:01:00,65.0,20.0,29.95,SW,225,13.0,-999.0,18,-99.99,,,-99.99,,2013-03-15 19:01:00,
2013-03-15 13:12:00,65.0,20.0,29.95,SW,225,13.0,-999.0,18,-99.99,,,-99.99,,2013-03-15 19:12:00,
2013-03-15 13:22:00,65.0,20.0,29.94,SW,222,15.0,-999.0,18,-99.99,,,-99.99,,2013-03-15 19:22:00,
2013-03-15 13:31:00,65.0,20.0,29.93,SW,236,11.0,-999.0,18,-99.99,,,-99.99,,2013-03-15 19:31:00,
2013-03-15 13:41:00,65.0,20.0,29.93,SW,236,11.0,-999.0,18,-99.99,,,-99.99,,2013-03-15 19:41:00,
2013-03-15 13:52:00,65.0,20.0,29.92,SW,221,14.0,-999.0,18,-99.99,,,-99.99,,2013-03-15 19:52:00,
2013-03-15 14:02:00,65.0,20.0,29.92,SSW,206,14.0,-999.0,18,-99.99,,,-99.99,,2013-03-15 20:02:00,
2013-03-15 14:11:00,65.0,20.0,29.92,SSW,206,14.0,-999.0,18,-99.99,,,-99.99,,2013-03-15 20:11:00,
2013-03-15 14:22:00,65.0,20.0,29.92,West,269,9.0,-999.0,18,-99.99,,,-99.99,,2013-03-15 20:22:00,
2013-03-15 14:31:00,68.0,19.0,29.90,West,281,21.0,-999.0,15,-99.99,,,-99.99,,2013-03-15 20:31:00,
2013-03-15 14:42:00,68.0,19.0,29.90,West,281,21.0,-999.0,15,-99.99,,,-99.99,,2013-03-15 20:42:00,
2013-03-15 14:52:00,68.0,19.0,29.89,WNW,292,23.0,-999.0,15,-99.99,,,-99.99,,2013-03-15 20:52:00,
2013-03-15 15:01:00,66.0,19.0,29.89,West,270,24.0,-999.0,16,-99.99,,,-99.99,,2013-03-15 21:01:00,
2013-03-15 15:11:00,66.0,19.0,29.89,West,270,24.0,-999.0,16,-99.99,,,-99.99,,2013-03-15 21:11:00,
2013-03-15 15:21:00,66.0,17.0,29.88,West,262,23.0,-999.0,15,-99.99,,,-99.99,,2013-03-15 21:21:00,
2013-03-15 15:32:00,67.0,18.0,29.88,West,274,20.0,-999.0,15,-99.99,,,-99.99,,2013-03-15 21:32:00,
2013-03-15 15:42:00,67.0,18.0,29.88,West,274,20.0,-999.0,15,-99.99,,,-99.99,,2013-03-15 21:42:00,
2013-03-15 15:52:00,67.0,18.0,29.88,West,274,20.0,-999.0,15,-99.99,,,-99.99,,2013-03-15 21:52:00,
2013-03-15 16:02:00,67.0,18.0,29.88,WNW,292,21.0,-999.0,15,-99.99,,,-99.99,,2013-03-15 22:02:00,
2013-03-15 16:12:00,67.0,18.0,29.88,WNW,292,21.0,-999.0,15,-99.99,,,-99.99,,2013-03-15 22:12:00,
2013-03-15 16:22:00,66.0,19.0,29.88,WNW,283,23.0,-999.0,16,-99.99,,,-99.99,,2013-03-15 22:22:00,
2013-03-15 16:32:00,67.0,18.0,29.88,WNW,296,22.0,-999.0,15,-99.99,,,-99.99,,2013-03-15 22:32:00,
2013-03-15 16:52:00,68.0,17.0,29.88,WNW,295,19.0,-999.0,14,-99.99,,,-99.99,,2013-03-15 22:52:00,
2013-03-15 17:02:00,66.0,17.0,29.88,NW,318,18.0,-999.0,15,-99.99,,,-99.99,,2013-03-15 23:02:00,
2013-03-15 17:12:00,66.0,17.0,29.88,NW,318,18.0,-999.0,15,-99.99,,,-99.99,,2013-03-15 23:12:00,
2013-03-15 17:22:00,65.0,18.0,29.88,WNW,299,16.0,-999.0,16,-99.99,,,-99.99,,2013-03-15 23:22:00,
2013-03-15 17:32:00,65.0,18.0,29.88,WNW,294,18.0,-999.0,16,-99.99,,,-99.99,,2013-03-15 23:32:00,
2013-03-15 17:42:00,65.0,18.0,29.88,WNW,294,18.0,-999.0,16,-99.99,,,-99.99,,2013-03-15 23:42:00,
2013-03-15 17:53:00,64.0,17.0,29.88,NW,304,19.0,-999.0,16,-99.99,,,-99.99,,2013-03-15 23:53:00,
2013-03-15 18:02:00,63.0,18.0,29.88,NW,315,17.0,-999.0,17,-99.99,,,-99.99,,2013-03-16 00:02:00,
2013-03-15 18:12:00,63.0,18.0,29.88,NW,315,17.0,-999.0,17,-99.99,,,-99.99,,2013-03-16 00:12:00,
2013-03-15 18:22:00,63.0,18.0,29.88,WNW,293,12.0,-999.0,17,-99.99,,,-99.99,,2013-03-16 00:22:00,
2013-03-15 18:32:00,62.0,17.0,29.88,NW,313,14.0,-999.0,17,-99.99,,,-99.99,,2013-03-16 00:32:00,
2013-03-15 18:42:00,62.0,17.0,29.88,NW,313,14.0,-999.0,17,-99.99,,,-99.99,,2013-03-16 00:42:00,
2013-03-15 18:52:00,60.0,16.0,29.89,WNW,299,16.0,-999.0,18,-99.99,,,-99.99,,2013-03-16 00:52:00,
2013-03-15 19:01:00,59.0,17.0,29.90,WNW,292,16.0,-999.0,19,-99.99,,,-99.99,,2013-03-16 01:01:00,
2013-03-15 19:12:00,59.0,17.0,29.90,WNW,292,16.0,-999.0,19,-99.99,,,-99.99,,2013-03-16 01:12:00,
2013-03-15 19:21:00,58.0,15.0,29.90,WNW,302,20.0,-999.0,18,-99.99,,,-99.99,,2013-03-16 01:21:00,
2013-03-15 19:32:00,57.0,15.0,29.91,WNW,286,18.0,-999.0,19,-99.99,,,-99.99,,2013-03-16 01:32:00,
2013-03-15 19:41:00,57.0,15.0,29.91,WNW,286,18.0,-999.0,19,-99.99,,,-99.99,,2013-03-16 01:41:00,
2013-03-15 19:52:00,56.0,16.0,29.91,WNW,290,19.0,-999.0,20,-99.99,,,-99.99,,2013-03-16 01:52:00,
2013-03-15 20:02:00,56.0,14.0,29.91,WNW,298,19.0,-999.0,19,-99.99,,,-99.99,,2013-03-16 02:02:00,
2013-03-15 20:11:00,56.0,14.0,29.91,WNW,298,19.0,-999.0,19,-99.99,,,-99.99,,2013-03-16 02:11:00,
2013-03-15 20:22:00,56.0,14.0,29.93,WNW,286,20.0,-999.0,19,-99.99,,,-99.99,,2013-03-16 02:22:00,
2013-03-15 20:32:00,55.0,15.0,29.93,WNW,302,13.0,-999.0,20,-99.99,,,-99.99,,2013-03-16 02:32:00,
2013-03-15 20:42:00,55.0,15.0,29.93,WNW,302,13.0,-999.0,20,-99.99,,,-99.99,,2013-03-16 02:42:00,
2013-03-15 20:52:00,54.0,19.0,29.95,NNW,338,7.0,-999.0,25,-99.99,,,-99.99,,2013-03-16 02:52:00,
2013-03-15 21:01:00,52.0,20.0,29.96,NW,326,8.0,-999.0,28,-99.99,,,-99.99,,2013-03-16 03:01:00,
2013-03-15 21:11:00,52.0,20.0,29.96,NW,326,8.0,-999.0,28,-99.99,,,-99.99,,2013-03-16 03:11:00,
2013-03-15 21:21:00,52.0,19.0,29.96,NNW,346,8.0,-999.0,27,-99.99,,,-99.99,,2013-03-16 03:21:00,
2013-03-15 21:32:00,51.0,16.0,29.97,NNW,342,8.0,-999.0,25,-99.99,,,-99.99,,2013-03-16 03:32:00,
2013-03-15 21:42:00,51.0,16.0,29.97,NNW,342,8.0,-999.0,25,-99.99,,,-99.99,,2013-03-16 03:42:00,
2013-03-15 21:53:00,51.0,17.0,29.98,North,5,9.0,-999.0,26,-99.99,,,-99.99,,2013-03-16 03:53:00,
2013-03-15 22:02:00,51.0,16.0,29.98,NNE,26,10.0,-999.0,25,-99.99,,,-99.99,,2013-03-16 04:02:00,
2013-03-15 22:12:00,51.0,16.0,29.98,NNE,26,10.0,-999.0,25,-99.99,,,-99.99,,2013-03-16 04:12:00,
2013-03-15 22:22:00,51.0,17.0,29.98,NNW,343,6.0,-999.0,26,-99.99,,,-99.99,,2013-03-16 04:22:00,
2013-03-15 22:32:00,51.0,18.0,29.98,NW,315,4.0,-999.0,27,-99.99,,,-99.99,,2013-03-16 04:32:00,
2013-03-15 22:42:00,51.0,18.0,29.98,NW,315,4.0,-999.0,27,-99.99,,,-99.99,,2013-03-16 04:42:00,
2013-03-15 22:53:00,50.0,16.0,29.98,NW,318,4.0,-999.0,26,-99.99,,,-99.99,,2013-03-16 04:53:00,
2013-03-15 23:02:00,50.0,16.0,29.98,NW,318,4.0,-999.0,26,-99.99,,,-99.99,,2013-03-16 05:02:00,
2013-03-15 23:12:00,50.0,16.0,29.98,NW,318,4.0,-999.0,26,-99.99,,,-99.99,,2013-03-16 05:12:00,
2013-03-15 23:21:00,44.0,16.0,29.98,NE,46,11.0,-999.0,32,-99.99,,,-99.99,,2013-03-16 05:21:00,
2013-03-15 23:32:00,45.0,16.0,29.98,NNE,33,12.0,-999.0,31,-99.99,,,-99.99,,2013-03-16 05:32:00,
2013-03-15 23:42:00,45.0,16.0,29.98,NNE,33,12.0,-999.0,31,-99.99,,,-99.99,,2013-03-16 05:42:00,
2013-03-15 23:52:00,46.0,18.0,29.99,NE,41,13.0,-999.0,32,-99.99,,,-99.99,,2013-03-16 05:52:00,